Time;durP1;ratioP1;P1;durP2;ratioP2;P2;SDS_P1;SDS_P2;PMS_P1;PMS_P2;Temp;Humidity;BMP_temperature;BMP_pressure;BME280_temperature;BME280_humidity;BME280_pressure;Samples;Min_cycle;Max_cycle;Signal;HPM_P1;HPM_P2
2022/06/06 00:01:20;;;;;;;29.80;22.40;;;21.00;98.60;;;;;;5029286;28;20447;-73
2022/06/06 00:03:52;;;;;;;29.03;22.60;;;21.00;98.50;;;;;;5013634;28;20426;-74
2022/06/06 00:06:23;;;;;;;28.80;23.30;;;21.00;98.40;;;;;;4996724;28;20511;-73
2022/06/06 00:08:49;;;;;;;28.87;24.23;;;21.00;98.40;;;;;;4996019;28;20466;-73
2022/06/06 00:11:15;;;;;;;29.50;23.50;;;21.00;98.40;;;;;;5013644;28;20803;-73
2022/06/06 00:13:46;;;;;;;29.50;25.10;;;21.00;98.40;;;;;;5012335;28;20473;-73
2022/06/06 00:16:12;;;;;;;30.83;23.73;;;21.00;98.40;;;;;;5029046;28;20426;-73
2022/06/06 00:18:38;;;;;;;27.70;24.33;;;20.90;98.20;;;;;;5027906;28;20527;-73
2022/06/06 00:21:07;;;;;;;27.87;22.70;;;20.90;98.20;;;;;;5028065;28;20535;-74
2022/06/06 00:23:34;;;;;;;27.37;22.00;;;20.90;98.10;;;;;;5011845;28;20937;-74
2022/06/06 00:26:00;;;;;;;29.60;21.20;;;20.90;98.00;;;;;;5028996;28;20427;-73
2022/06/06 00:28:26;;;;;;;27.77;20.63;;;20.90;98.00;;;;;;5013074;28;20924;-74
2022/06/06 00:34:48;;;;;;;24.97;20.50;;;20.90;98.00;;;;;;5028415;28;20460;-74
2022/06/06 00:36:33;;;;;;;25.33;22.57;;;20.80;97.90;;;;;;5012177;28;20418;-74
2022/06/06 00:39:04;;;;;;;26.63;21.33;;;20.80;97.90;;;;;;5012949;28;20455;-74
2022/06/06 00:41:35;;;;;;;23.87;20.60;;;20.80;97.90;;;;;;5012893;28;20922;-74
2022/06/06 00:44:15;;;;;;;24.43;19.00;;;20.80;97.90;;;;;;5012797;28;20826;-73
2022/06/06 00:47:19;;;;;;;19.97;17.87;;;20.80;97.80;;;;;;4995295;28;20443;-73
2022/06/06 00:49:53;;;;;;;24.37;20.33;;;20.80;97.60;;;;;;5011560;28;20478;-74
2022/06/06 00:52:24;;;;;;;23.70;18.77;;;20.80;97.50;;;;;;5008176;28;20440;-73
2022/06/06 00:54:54;;;;;;;22.90;19.90;;;20.80;97.60;;;;;;4986993;28;20411;-73
2022/06/06 00:57:28;;;;;;;22.73;18.50;;;20.80;97.70;;;;;;4995444;28;20498;-74
2022/06/06 00:59:55;;;;;;;22.43;18.53;;;20.80;97.70;;;;;;5011475;28;20451;-74
2022/06/06 01:02:23;;;;;;;23.40;18.17;;;20.80;97.70;;;;;;4997328;28;20412;-74
2022/06/06 01:04:50;;;;;;;21.30;18.03;;;20.80;97.70;;;;;;5012708;28;20566;-73
2022/06/06 01:07:19;;;;;;;19.70;16.80;;;20.80;97.60;;;;;;5011384;28;20446;-74
2022/06/06 01:09:45;;;;;;;19.77;16.70;;;20.70;97.50;;;;;;4995290;28;20409;-74
2022/06/06 01:12:15;;;;;;;19.70;16.40;;;20.70;97.40;;;;;;5011405;28;20406;-73
2022/06/06 01:14:56;;;;;;;22.27;18.00;;;20.70;97.30;;;;;;5011746;28;20463;-73
2022/06/06 01:17:25;;;;;;;18.83;16.37;;;20.70;97.30;;;;;;4991678;28;20451;-74
2022/06/06 01:20:13;;;;;;;20.87;17.10;;;20.70;97.30;;;;;;4993007;28;20434;-73
2022/06/06 01:23:13;;;;;;;19.27;16.50;;;20.70;97.30;;;;;;5003548;28;20422;-73
2022/06/06 01:26:07;;;;;;;17.63;14.90;;;20.70;97.30;;;;;;5010871;28;20439;-73
2022/06/06 01:29:00;;;;;;;19.40;16.17;;;20.70;97.70;;;;;;5027644;28;20783;-73
2022/06/06 01:31:51;;;;;;;18.77;16.03;;;20.70;97.30;;;;;;5008412;28;20466;-74
2022/06/06 01:34:25;;;;;;;21.23;17.23;;;20.60;97.30;;;;;;4994914;28;20459;-74
2022/06/06 01:36:56;;;;;;;19.13;16.60;;;20.60;97.30;;;;;;5007066;28;20442;-73
2022/06/06 01:39:23;;;;;;;19.30;15.80;;;20.60;97.30;;;;;;4994801;28;20420;-74
2022/06/06 01:42:07;;;;;;;18.13;15.80;;;20.60;97.30;;;;;;5010508;28;20446;-74
2022/06/06 01:44:44;;;;;;;19.93;16.20;;;20.60;97.30;;;;;;4994967;28;20438;-73
2022/06/06 01:47:18;;;;;;;19.80;15.90;;;20.60;97.20;;;;;;5011277;28;20437;-73
2022/06/06 01:49:47;;;;;;;16.40;14.60;;;20.60;97.20;;;;;;4994950;28;20529;-73
2022/06/06 01:52:15;;;;;;;19.20;15.17;;;20.60;97.30;;;;;;5027244;28;20497;-74
2022/06/06 01:54:43;;;;;;;17.70;15.00;;;20.60;97.30;;;;;;4994399;28;20497;-74
2022/06/06 01:57:18;;;;;;;20.10;15.47;;;20.60;97.20;;;;;;4994998;28;20931;-74
2022/06/06 01:59:53;;;;;;;18.70;14.97;;;20.60;97.30;;;;;;5011075;28;20425;-73
2022/06/06 02:02:21;;;;;;;19.40;15.70;;;20.50;97.20;;;;;;5026994;28;20425;-73
2022/06/06 02:04:50;;;;;;;18.20;14.70;;;20.50;97.20;;;;;;5011906;28;20455;-73
2022/06/06 02:07:20;;;;;;;17.40;14.73;;;20.50;97.20;;;;;;5011959;28;20798;-73
2022/06/06 02:09:49;;;;;;;16.73;14.27;;;20.50;97.30;;;;;;5011836;28;20423;-73
2022/06/06 02:12:15;;;;;;;19.70;15.87;;;20.50;97.30;;;;;;5010698;28;20481;-73
2022/06/06 02:14:41;;;;;;;16.77;15.07;;;20.50;97.30;;;;;;5011926;28;20509;-73
2022/06/06 02:17:07;;;;;;;21.17;15.50;;;20.50;97.30;;;;;;5011736;28;20509;-73
2022/06/06 02:19:34;;;;;;;16.60;14.60;;;20.50;97.30;;;;;;5011502;28;20438;-73
2022/06/06 02:22:03;;;;;;;15.80;14.10;;;20.50;97.30;;;;;;4994522;28;20426;-74
2022/06/06 02:24:33;;;;;;;17.97;14.60;;;20.50;97.30;;;;;;5027391;28;20416;-73
2022/06/06 02:27:02;;;;;;;15.70;13.60;;;20.50;97.30;;;;;;5011981;28;20782;-73
2022/06/06 02:29:28;;;;;;;17.20;13.80;;;20.40;97.30;;;;;;4994639;28;20431;-73
2022/06/06 02:31:58;;;;;;;16.87;14.40;;;20.40;97.30;;;;;;5011252;28;20435;-74
2022/06/06 02:34:27;;;;;;;18.53;14.60;;;20.40;97.30;;;;;;5007165;28;20455;-73
2022/06/06 02:36:55;;;;;;;16.83;13.90;;;20.40;97.30;;;;;;4982747;28;20494;-73
2022/06/06 02:39:25;;;;;;;17.63;14.47;;;20.40;97.30;;;;;;5010736;28;20448;-74
2022/06/06 02:41:51;;;;;;;15.87;14.17;;;20.40;97.30;;;;;;5026891;28;20839;-73
2022/06/06 02:44:21;;;;;;;18.73;15.37;;;20.40;97.30;;;;;;5012892;28;20794;-73
2022/06/06 02:46:49;;;;;;;17.43;14.60;;;20.40;97.30;;;;;;5015291;28;20422;-74
2022/06/06 02:49:16;;;;;;;16.80;15.03;;;20.40;97.30;;;;;;5014161;28;20480;-74
2022/06/06 02:51:42;;;;;;;16.10;13.40;;;20.40;97.30;;;;;;5013784;28;20481;-73
2022/06/06 02:54:11;;;;;;;15.07;13.20;;;20.40;97.20;;;;;;5014115;28;20447;-74
2022/06/06 02:56:38;;;;;;;14.73;13.13;;;20.40;97.30;;;;;;5013824;28;20449;-73
2022/06/06 02:59:07;;;;;;;16.93;15.13;;;20.40;97.20;;;;;;4997591;28;20419;-73
2022/06/06 03:01:36;;;;;;;16.67;13.50;;;20.40;97.20;;;;;;5013425;28;20444;-73
2022/06/06 03:04:04;;;;;;;18.00;13.70;;;20.40;97.30;;;;;;5029148;28;20426;-73
2022/06/06 03:06:55;;;;;;;18.27;14.60;;;20.30;97.20;;;;;;5030062;28;20552;-74
2022/06/06 03:10:25;;;;;;;14.97;13.30;;;20.30;97.20;;;;;;5009867;28;20940;-73
2022/06/06 03:13:08;;;;;;;15.93;13.63;;;20.30;97.30;;;;;;4980809;28;20477;-74
2022/06/06 03:22:46;;;;;;;14.50;11.97;;;20.30;97.50;;;;;;4997167;28;20420;-73
2022/06/06 03:25:27;;;;;;;15.67;12.90;;;20.30;97.60;;;;;;4970083;28;21073;-73
2022/06/06 03:28:20;;;;;;;12.03;10.60;;;20.20;97.70;;;;;;5003023;28;20869;-73
2022/06/06 03:30:46;;;;;;;14.20;10.10;;;20.20;97.80;;;;;;5013197;28;20441;-73
2022/06/06 03:33:45;;;;;;;12.70;11.07;;;20.20;97.80;;;;;;4980656;28;20545;-73
2022/06/06 03:36:38;;;;;;;13.30;10.93;;;20.20;97.70;;;;;;5014268;28;20406;-73
2022/06/06 03:39:34;;;;;;;11.90;10.03;;;20.20;97.70;;;;;;5012505;28;20528;-73
2022/06/06 03:42:30;;;;;;;12.87;10.60;;;20.20;97.80;;;;;;5011212;28;20750;-73
2022/06/06 03:45:06;;;;;;;10.47;8.90;;;20.20;97.80;;;;;;5006439;28;20430;-73
2022/06/06 03:47:40;;;;;;;9.97;8.13;;;20.20;97.90;;;;;;5029446;28;20879;-73
2022/06/06 03:50:20;;;;;;;10.33;8.70;;;20.20;97.90;;;;;;5029340;28;20528;-73
2022/06/06 03:53:06;;;;;;;11.53;8.70;;;20.10;97.90;;;;;;5028892;28;20454;-73
2022/06/06 03:55:57;;;;;;;10.30;8.70;;;20.10;97.90;;;;;;5012697;28;20418;-73
2022/06/06 03:58:30;;;;;;;9.23;8.07;;;20.10;97.80;;;;;;4996463;28;20425;-73
2022/06/06 04:00:59;;;;;;;8.63;7.80;;;20.10;97.80;;;;;;5012777;28;20425;-74
2022/06/06 04:03:31;;;;;;;8.87;7.23;;;20.10;97.80;;;;;;5013521;28;20456;-73
2022/06/06 04:06:01;;;;;;;11.67;8.10;;;20.10;97.70;;;;;;5012042;28;20480;-73
2022/06/06 04:08:34;;;;;;;8.70;7.30;;;20.10;97.70;;;;;;4996334;28;20440;-73
2022/06/06 04:11:15;;;;;;;8.33;7.37;;;20.10;97.80;;;;;;4980234;28;20449;-73
2022/06/06 04:14:02;;;;;;;8.97;7.20;;;20.10;97.80;;;;;;4980296;28;20465;-73
2022/06/06 04:16:56;;;;;;;14.43;7.27;;;20.10;97.70;;;;;;5027426;28;20461;-73
2022/06/06 04:19:40;;;;;;;9.20;6.50;;;20.10;97.70;;;;;;4980008;28;20522;-73
2022/06/06 04:22:23;;;;;;;7.70;6.90;;;20.00;97.70;;;;;;5011925;28;20453;-73
2022/06/06 04:25:16;;;;;;;7.70;6.50;;;20.00;97.80;;;;;;5009002;28;20437;-73
2022/06/06 04:27:52;;;;;;;7.47;6.73;;;20.00;97.70;;;;;;4995528;28;20437;-73
2022/06/06 04:30:42;;;;;;;7.17;6.47;;;20.00;98.00;;;;;;5013340;28;20463;-73
2022/06/06 04:33:11;;;;;;;8.00;6.90;;;20.00;97.70;;;;;;5011995;28;20457;-73
2022/06/06 04:35:46;;;;;;;6.90;6.20;;;20.00;97.70;;;;;;5013217;28;20444;-73
2022/06/06 04:38:25;;;;;;;9.27;6.50;;;20.00;97.80;;;;;;4995810;28;20409;-73
2022/06/06 04:41:00;;;;;;;7.83;6.27;;;20.00;97.70;;;;;;5006744;28;20461;-73
2022/06/06 04:43:39;;;;;;;8.10;6.67;;;20.00;97.70;;;;;;5011625;28;20918;-73
2022/06/06 04:46:17;;;;;;;7.93;6.90;;;20.00;97.80;;;;;;4995992;28;20504;-73
2022/06/06 04:48:44;;;;;;;9.53;7.70;;;20.00;97.80;;;;;;5012955;28;20922;-73
2022/06/06 04:51:16;;;;;;;7.37;6.17;;;20.00;98.10;;;;;;4995346;28;20474;-73
2022/06/06 04:53:47;;;;;;;8.20;6.13;;;20.00;97.80;;;;;;5011534;28;20452;-73
2022/06/06 04:56:16;;;;;;;7.03;6.00;;;19.90;97.60;;;;;;4995513;28;20429;-74
2022/06/06 04:58:50;;;;;;;7.73;5.87;;;19.90;97.50;;;;;;5013137;28;20418;-73
2022/06/06 05:01:16;;;;;;;6.50;5.67;;;19.90;97.50;;;;;;4995292;28;20489;-73
2022/06/06 05:03:45;;;;;;;7.90;6.47;;;19.90;97.50;;;;;;5011064;28;20996;-73
2022/06/06 05:06:37;;;;;;;8.50;6.67;;;19.90;97.50;;;;;;5010990;28;20428;-74
2022/06/06 05:09:19;;;;;;;7.47;6.77;;;19.90;97.50;;;;;;5010527;28;21061;-73
2022/06/06 05:12:04;;;;;;;7.80;6.20;;;19.90;97.40;;;;;;5012375;28;20954;-73
2022/06/06 05:14:35;;;;;;;7.87;6.40;;;19.90;97.40;;;;;;4994752;28;20923;-73
2022/06/06 05:17:18;;;;;;;7.97;6.43;;;19.90;97.40;;;;;;5011755;28;20422;-73
2022/06/06 05:20:08;;;;;;;7.33;6.53;;;19.90;97.40;;;;;;5027668;28;20425;-73
2022/06/06 05:23:12;;;;;;;8.27;6.40;;;19.90;97.40;;;;;;5010977;28;20452;-73
2022/06/06 05:25:53;;;;;;;7.40;6.07;;;19.90;97.50;;;;;;5007465;28;20419;-73
2022/06/06 05:28:41;;;;;;;8.23;6.60;;;19.90;97.80;;;;;;4975625;28;20496;-73
2022/06/06 05:31:32;;;;;;;6.33;5.70;;;19.80;97.30;;;;;;4990032;28;20449;-73
2022/06/06 05:34:05;;;;;;;7.70;6.90;;;19.80;97.40;;;;;;5027479;28;20451;-73
2022/06/06 05:36:37;;;;;;;8.67;6.80;;;19.80;97.40;;;;;;5011224;28;20503;-73
2022/06/06 05:39:15;;;;;;;10.03;7.83;;;19.80;97.50;;;;;;4995045;28;20442;-73
2022/06/06 05:41:56;;;;;;;7.80;6.63;;;19.80;97.50;;;;;;4994440;28;21036;-73
2022/06/06 05:44:45;;;;;;;10.50;7.30;;;19.80;97.50;;;;;;5012217;28;20503;-73
2022/06/06 05:47:48;;;;;;;7.53;5.40;;;19.80;97.50;;;;;;4978849;28;20526;-74
2022/06/06 05:50:31;;;;;;;7.70;6.83;;;19.70;97.70;;;;;;5007601;28;20474;-73
2022/06/06 05:53:20;;;;;;;7.70;6.33;;;19.80;97.50;;;;;;5018476;28;20468;-73
2022/06/06 05:56:00;;;;;;;7.23;6.50;;;19.80;97.50;;;;;;5010779;28;20497;-73
2022/06/06 06:01:41;;;;;;;10.07;5.73;;;19.70;97.40;;;;;;4949294;29;21023;-75
2022/06/06 06:04:40;;;;;;;8.23;6.17;;;19.70;97.40;;;;;;4918966;29;20446;-76
2022/06/06 06:07:17;;;;;;;7.30;5.53;;;19.70;97.30;;;;;;4918471;29;20821;-75
2022/06/06 06:09:57;;;;;;;7.73;6.00;;;19.70;97.20;;;;;;4913520;28;20442;-75
2022/06/06 06:12:30;;;;;;;7.70;6.07;;;19.70;97.20;;;;;;4967715;28;20456;-75
2022/06/06 06:15:32;;;;;;;7.23;5.43;;;19.70;97.20;;;;;;4954125;29;20432;-75
2022/06/06 06:18:07;;;;;;;8.07;5.70;;;19.70;97.20;;;;;;4953378;28;20574;-75
2022/06/06 06:20:38;;;;;;;7.37;5.37;;;19.70;97.20;;;;;;4958143;28;20438;-75
2022/06/06 06:23:11;;;;;;;6.70;5.60;;;19.70;97.20;;;;;;4977057;28;20416;-75
2022/06/06 06:25:40;;;;;;;5.67;5.17;;;19.70;97.10;;;;;;4967924;28;20420;-75
2022/06/06 06:28:10;;;;;;;8.40;5.60;;;19.70;97.10;;;;;;4940865;29;20428;-76
2022/06/06 06:30:59;;;;;;;7.37;5.60;;;19.60;97.00;;;;;;4956331;28;20444;-76
2022/06/06 06:33:37;;;;;;;6.43;5.60;;;19.70;97.00;;;;;;4957651;29;20447;-75
2022/06/06 06:36:09;;;;;;;6.77;5.13;;;19.60;96.90;;;;;;4956420;28;20502;-73
2022/06/06 06:38:41;;;;;;;6.20;5.33;;;19.60;96.80;;;;;;4940730;29;20430;-74
2022/06/06 06:41:33;;;;;;;7.77;5.43;;;19.60;96.80;;;;;;4956263;28;20451;-75
2022/06/06 06:44:18;;;;;;;6.13;5.07;;;19.60;96.80;;;;;;4940387;29;20424;-71
2022/06/06 06:46:56;;;;;;;5.73;4.77;;;19.70;96.80;;;;;;4937690;29;20459;-71
2022/06/06 06:49:51;;;;;;;5.17;4.43;;;19.60;96.70;;;;;;4938877;29;20405;-74
2022/06/06 06:53:03;;;;;;;6.03;5.30;;;19.60;96.70;;;;;;4937083;29;20979;-73
2022/06/06 06:55:57;;;;;;;4.93;4.37;;;19.60;96.60;;;;;;4936075;29;20428;-73
2022/06/06 06:58:52;;;;;;;7.90;4.47;;;19.60;96.50;;;;;;4949060;29;20530;-74
2022/06/06 07:01:21;;;;;;;7.57;4.07;;;19.60;96.50;;;;;;4955262;29;20451;-73
2022/06/06 07:11:08;;;;;;;4.57;4.17;;;19.60;96.30;;;;;;4955779;29;20455;-73
2022/06/06 07:14:05;;;;;;;4.73;4.23;;;19.60;96.20;;;;;;4954328;28;20459;-73
2022/06/06 07:16:36;;;;;;;5.00;3.93;;;19.60;96.20;;;;;;4920069;29;20473;-73
2022/06/06 07:19:06;;;;;;;6.57;4.00;;;19.60;96.10;;;;;;4925999;29;20431;-74
2022/06/06 07:21:34;;;;;;;4.53;4.07;;;19.60;96.00;;;;;;4955621;28;20540;-74
2022/06/06 07:24:09;;;;;;;3.80;3.50;;;19.60;95.90;;;;;;4938859;29;20425;-73
2022/06/06 07:26:39;;;;;;;4.27;3.77;;;19.60;95.80;;;;;;4938898;29;20440;-74
2022/06/06 07:29:10;;;;;;;3.97;3.60;;;19.60;95.70;;;;;;4954993;28;20428;-73
2022/06/06 07:32:07;;;;;;;3.90;3.50;;;19.60;95.70;;;;;;4953974;28;20440;-73
2022/06/06 07:34:59;;;;;;;5.27;3.60;;;19.60;95.70;;;;;;4954347;29;20547;-73
2022/06/06 07:37:47;;;;;;;3.67;3.23;;;19.60;95.60;;;;;;4955546;29;20780;-73
2022/06/06 07:41:08;;;;;;;5.23;3.60;;;19.60;95.40;;;;;;4954280;28;20437;-73
2022/06/06 07:43:57;;;;;;;5.10;3.50;;;19.60;95.30;;;;;;4910878;29;20961;-73
2022/06/06 07:47:02;;;;;;;3.10;2.83;;;19.60;95.20;;;;;;4893998;29;20838;-73
2022/06/06 07:49:42;;;;;;;3.47;3.17;;;19.60;95.20;;;;;;4898501;29;20469;-73
2022/06/06 07:52:34;;;;;;;3.40;3.10;;;19.60;95.20;;;;;;4913440;29;20832;-73
2022/06/06 07:55:20;;;;;;;3.70;3.40;;;19.60;95.10;;;;;;4895249;29;20581;-69
2022/06/06 07:58:16;;;;;;;3.60;3.27;;;19.60;95.10;;;;;;4913106;29;20433;-69
2022/06/06 08:00:53;;;;;;;3.50;3.00;;;19.70;95.00;;;;;;4896929;29;21021;-73
2022/06/06 08:03:57;;;;;;;4.03;2.93;;;19.70;95.00;;;;;;4892459;29;20443;-76
2022/06/06 08:06:36;;;;;;;2.97;2.63;;;19.70;95.00;;;;;;4880805;29;20937;-73
2022/06/06 08:09:02;;;;;;;4.07;2.70;;;19.70;94.90;;;;;;4880339;29;20537;-72
2022/06/06 08:11:54;;;;;;;4.33;2.60;;;19.70;94.80;;;;;;4880240;29;20475;-72
2022/06/06 08:14:39;;;;;;;5.20;2.60;;;19.70;95.10;;;;;;4934446;29;20476;-72
2022/06/06 08:17:38;;;;;;;4.03;3.03;;;19.80;94.70;;;;;;4955104;29;20435;-73
2022/06/06 08:20:21;;;;;;;3.60;2.73;;;19.80;94.50;;;;;;4934427;29;20448;-72
2022/06/06 08:22:59;;;;;;;2.50;2.30;;;19.80;94.40;;;;;;4953257;29;20909;-72
2022/06/06 08:25:29;;;;;;;3.97;2.60;;;19.80;94.30;;;;;;4953377;29;20507;-72
2022/06/06 08:27:57;;;;;;;2.40;2.20;;;19.80;94.20;;;;;;4954736;29;20397;-72
2022/06/06 08:30:23;;;;;;;3.77;2.70;;;19.80;94.10;;;;;;4954483;28;20448;-72
2022/06/06 08:32:52;;;;;;;2.93;2.00;;;19.90;94.00;;;;;;4954074;29;20893;-72
2022/06/06 08:35:18;;;;;;;2.20;2.00;;;19.90;94.00;;;;;;4937341;29;20540;-73
2022/06/06 08:37:46;;;;;;;2.17;1.97;;;19.90;93.90;;;;;;4954050;28;21246;-72
2022/06/06 08:40:24;;;;;;;1.90;1.80;;;19.90;93.80;;;;;;4956166;28;20539;-72
2022/06/06 08:43:24;;;;;;;2.23;2.03;;;20.00;93.70;;;;;;4937240;29;20464;-72
2022/06/06 08:46:17;;;;;;;1.70;1.60;;;20.00;93.60;;;;;;4952985;29;20831;-72
2022/06/06 08:48:58;;;;;;;2.83;1.90;;;20.00;93.60;;;;;;4952665;29;20447;-72
2022/06/06 08:51:52;;;;;;;1.83;1.73;;;20.00;93.50;;;;;;4937317;29;20515;-72
2022/06/06 08:54:44;;;;;;;2.30;1.80;;;20.00;93.30;;;;;;4953888;29;20541;-72
2022/06/06 08:57:30;;;;;;;1.80;1.40;;;20.10;93.20;;;;;;4937312;29;20862;-72
2022/06/06 09:00:04;;;;;;;1.60;1.50;;;20.10;93.00;;;;;;4936971;29;20996;-72
2022/06/06 09:03:32;;;;;;;1.80;1.60;;;20.10;92.90;;;;;;4952913;29;20411;-72
2022/06/06 09:06:16;;;;;;;1.73;1.63;;;20.10;92.80;;;;;;4891002;29;20659;-72
2022/06/06 09:09:33;;;;;;;2.27;1.47;;;20.10;92.70;;;;;;4934393;29;20444;-72
2022/06/06 09:12:23;;;;;;;2.00;1.70;;;20.10;92.50;;;;;;4952614;29;20416;-72
2022/06/06 09:15:12;;;;;;;1.80;1.50;;;20.10;92.40;;;;;;4936811;29;20541;-72
2022/06/06 09:17:43;;;;;;;1.60;1.37;;;20.10;92.30;;;;;;4952228;29;20461;-72
2022/06/06 09:20:31;;;;;;;1.43;1.30;;;20.10;92.30;;;;;;4953943;28;20446;-72
2022/06/06 09:23:38;;;;;;;1.87;1.40;;;20.20;92.30;;;;;;4929120;29;20479;-72
2022/06/06 09:26:23;;;;;;;2.37;1.37;;;20.20;92.20;;;;;;4952473;29;20393;-72
2022/06/06 09:29:31;;;;;;;1.50;1.30;;;20.20;92.00;;;;;;4952186;29;20443;-72
2022/06/06 09:32:31;;;;;;;4.43;1.43;;;20.20;91.80;;;;;;4936286;29;21035;-72
2022/06/06 09:35:28;;;;;;;2.10;1.30;;;20.20;91.60;;;;;;4952859;29;20453;-72
2022/06/06 09:38:07;;;;;;;2.30;1.50;;;20.20;91.60;;;;;;4953950;29;20428;-72
2022/06/06 09:40:45;;;;;;;1.60;1.47;;;20.20;91.60;;;;;;4937425;29;20499;-72
2022/06/06 09:43:32;;;;;;;5.50;1.30;;;20.30;91.60;;;;;;4954318;29;20400;-72
2022/06/06 09:46:16;;;;;;;1.87;1.10;;;20.30;91.70;;;;;;4954750;29;20419;-71
2022/06/06 09:48:58;;;;;;;2.00;1.30;;;20.30;91.50;;;;;;4946663;29;20907;-71
2022/06/06 09:51:36;;;;;;;1.77;1.30;;;20.40;91.40;;;;;;4918758;29;20455;-71
2022/06/06 10:00:09;;;;;;;1.80;1.20;;;20.40;91.10;;;;;;4932605;28;20865;-71
2022/06/06 10:03:05;;;;;;;2.87;1.17;;;20.40;91.00;;;;;;4957795;29;20483;-72
2022/06/06 10:05:31;;;;;;;2.00;1.03;;;20.50;91.10;;;;;;4956903;29;20470;-73
2022/06/06 10:08:32;;;;;;;3.67;1.23;;;20.50;91.00;;;;;;4947049;29;20443;-72
2022/06/06 10:11:20;;;;;;;2.40;1.10;;;20.50;91.00;;;;;;4913716;29;20207;-72
2022/06/06 10:14:12;;;;;;;1.20;1.10;;;20.60;91.10;;;;;;4921765;29;20438;-71
2022/06/06 10:17:24;;;;;;;1.13;1.07;;;20.60;91.00;;;;;;4937792;29;20516;-71
2022/06/06 10:20:02;;;;;;;1.33;1.20;;;20.60;90.90;;;;;;4912146;29;20460;-72
2022/06/06 10:22:56;;;;;;;1.80;1.30;;;20.70;91.00;;;;;;4957535;29;20452;-71
2022/06/06 10:25:22;;;;;;;1.10;1.00;;;20.70;91.00;;;;;;4958069;29;20416;-73
2022/06/06 10:28:17;;;;;;;1.53;1.13;;;20.70;90.90;;;;;;4956099;29;20420;-71
2022/06/06 10:31:04;;;;;;;2.07;1.20;;;20.70;90.70;;;;;;4956901;28;20819;-74
2022/06/06 10:33:35;;;;;;;3.17;1.27;;;20.70;90.70;;;;;;4940459;29;20475;-74
2022/06/06 10:36:29;;;;;;;1.50;1.40;;;20.80;90.80;;;;;;4940394;29;20429;-74
2022/06/06 10:39:11;;;;;;;2.10;1.50;;;20.80;90.70;;;;;;4956113;29;20456;-76
2022/06/06 10:42:04;;;;;;;1.30;1.10;;;20.90;90.60;;;;;;4940023;29;20457;-75
2022/06/06 10:45:08;;;;;;;1.30;1.10;;;20.90;90.60;;;;;;4940509;29;20469;-75
2022/06/06 10:47:58;;;;;;;1.43;1.27;;;21.00;90.60;;;;;;4939956;29;20435;-75
2022/06/06 10:51:36;;;;;;;1.60;1.30;;;21.00;90.60;;;;;;4956362;28;20444;-75
2022/06/06 10:53:52;;;;;;;1.20;1.00;;;21.00;90.50;;;;;;4957223;28;20970;-75
2022/06/06 10:56:37;;;;;;;1.20;1.00;;;21.10;90.40;;;;;;4940186;29;20560;-76
2022/06/06 10:59:51;;;;;;;1.53;1.30;;;21.10;90.30;;;;;;4939876;29;20436;-77
2022/06/06 11:02:39;;;;;;;1.90;1.20;;;21.10;90.30;;;;;;4947780;29;20485;-75
2022/06/06 11:05:27;;;;;;;1.70;1.30;;;21.10;90.20;;;;;;4955007;28;20443;-74
2022/06/06 11:08:28;;;;;;;1.13;1.03;;;21.10;90.30;;;;;;4940449;29;20460;-77
2022/06/06 11:11:02;;;;;;;2.10;1.47;;;21.20;90.40;;;;;;4954330;28;21022;-72
2022/06/06 11:13:51;;;;;;;1.30;1.17;;;21.20;90.40;;;;;;4955567;29;20568;-73
2022/06/06 11:16:23;;;;;;;2.30;1.20;;;21.30;90.40;;;;;;4939257;29;20444;-73
2022/06/06 11:19:24;;;;;;;2.00;1.40;;;21.30;90.40;;;;;;4955206;29;20433;-76
2022/06/06 11:22:25;;;;;;;1.40;1.30;;;21.30;90.50;;;;;;4955015;28;20456;-76
2022/06/06 11:25:02;;;;;;;2.27;1.40;;;21.30;90.60;;;;;;4955194;29;20408;-75
2022/06/06 11:27:43;;;;;;;2.40;1.30;;;21.30;90.70;;;;;;4956006;29;20434;-72
2022/06/06 11:30:33;;;;;;;1.30;0.93;;;21.30;90.80;;;;;;4955872;28;20829;-73
2022/06/06 11:33:23;;;;;;;3.17;1.00;;;21.30;90.80;;;;;;4954223;29;20429;-73
2022/06/06 11:36:03;;;;;;;5.70;1.40;;;21.30;90.80;;;;;;4956119;29;20407;-72
2022/06/06 11:39:02;;;;;;;3.83;1.60;;;21.30;90.60;;;;;;4939122;29;20524;-72
2022/06/06 11:42:24;;;;;;;3.43;1.57;;;21.30;90.50;;;;;;4939578;29;20460;-72
2022/06/06 11:45:09;;;;;;;6.23;1.27;;;21.30;90.50;;;;;;4916613;29;20428;-72
2022/06/06 11:47:39;;;;;;;3.23;1.20;;;21.30;90.60;;;;;;4939322;29;20466;-72
2022/06/06 11:50:08;;;;;;;3.03;1.30;;;21.30;90.60;;;;;;4954156;29;20486;-74
2022/06/06 11:53:05;;;;;;;2.00;1.37;;;21.30;90.70;;;;;;4938417;29;20328;-75
2022/06/06 11:55:56;;;;;;;1.63;1.20;;;21.30;90.80;;;;;;4954117;29;20430;-74
2022/06/06 11:58:52;;;;;;;5.03;1.57;;;21.20;90.80;;;;;;4938667;29;20498;-73
2022/06/06 12:01:43;;;;;;;2.63;1.40;;;21.30;90.90;;;;;;4938166;29;20469;-74
2022/06/06 12:04:34;;;;;;;1.33;1.23;;;21.30;91.00;;;;;;4938334;29;20460;-74
2022/06/06 12:07:03;;;;;;;2.63;1.30;;;21.30;91.00;;;;;;4954134;29;20530;-73
2022/06/06 12:09:55;;;;;;;2.60;1.60;;;21.30;91.00;;;;;;4954735;28;20465;-73
2022/06/06 12:12:48;;;;;;;1.40;1.30;;;21.30;91.00;;;;;;4937842;29;20424;-73
2022/06/06 12:15:29;;;;;;;3.23;1.27;;;21.30;91.10;;;;;;4937188;29;20440;-73
2022/06/06 12:18:14;;;;;;;4.90;2.00;;;21.30;91.10;;;;;;4953932;29;20410;-73
2022/06/06 12:20:54;;;;;;;3.33;1.90;;;21.40;91.30;;;;;;4954748;29;20467;-73
2022/06/06 12:24:05;;;;;;;5.00;1.43;;;21.40;91.20;;;;;;4921521;29;20445;-73
2022/06/06 12:26:55;;;;;;;2.93;1.70;;;21.40;91.10;;;;;;4953778;29;20425;-73
2022/06/06 12:29:52;;;;;;;3.87;1.70;;;21.40;90.90;;;;;;4937584;29;20814;-73
2022/06/06 12:32:28;;;;;;;3.63;1.47;;;21.50;90.90;;;;;;4937493;29;20793;-74
2022/06/06 12:35:09;;;;;;;3.63;1.73;;;21.50;90.90;;;;;;4953631;29;20480;-75
2022/06/06 12:37:35;;;;;;;2.63;1.80;;;21.50;91.00;;;;;;4937123;29;20439;-71
2022/06/06 12:40:14;;;;;;;6.60;2.00;;;21.60;90.80;;;;;;4937427;29;20476;-72
2022/06/06 12:42:46;;;;;;;9.60;1.97;;;21.70;91.20;;;;;;4953806;29;20179;-71
2022/06/06 12:45:34;;;;;;;9.30;1.87;;;21.70;91.50;;;;;;4955002;29;20456;-71
2022/06/06 12:48:21;;;;;;;8.90;1.93;;;21.80;91.80;;;;;;4954159;29;20414;-71
2022/06/06 12:50:59;;;;;;;4.27;1.60;;;21.90;91.80;;;;;;4937805;29;20457;-71
2022/06/06 12:54:05;;;;;;;12.20;2.23;;;22.00;91.90;;;;;;4938157;29;20525;-71
2022/06/06 12:56:52;;;;;;;7.53;2.60;;;22.00;92.00;;;;;;4954239;29;20406;-71
2022/06/06 12:59:50;;;;;;;4.27;1.10;;;22.10;91.40;;;;;;4937908;29;20446;-71
2022/06/06 13:02:15;;;;;;;2.53;1.50;;;22.10;90.90;;;;;;4937034;29;20998;-72
2022/06/06 13:04:51;;;;;;;4.43;1.80;;;22.10;90.40;;;;;;4954181;29;20513;-72
2022/06/06 13:07:26;;;;;;;6.63;2.60;;;22.20;90.00;;;;;;4954366;29;20489;-72
2022/06/06 13:10:17;;;;;;;2.67;1.30;;;22.20;90.70;;;;;;4936254;28;20463;-71
2022/06/06 13:13:05;;;;;;;4.23;1.67;;;22.20;90.60;;;;;;4936772;29;21018;-72
2022/06/06 13:16:00;;;;;;;3.70;1.40;;;22.30;90.10;;;;;;4952970;29;20430;-71
2022/06/06 13:18:53;;;;;;;6.57;1.40;;;22.40;89.90;;;;;;4936884;29;20411;-71
2022/06/06 13:22:05;;;;;;;2.73;1.37;;;22.40;88.60;;;;;;4952880;28;20442;-71
2022/06/06 13:24:42;;;;;;;4.00;1.40;;;22.40;88.00;;;;;;4952615;29;20437;-71
2022/06/06 13:27:25;;;;;;;4.37;1.60;;;22.40;86.70;;;;;;4953771;29;20425;-72
2022/06/06 13:29:54;;;;;;;1.87;1.37;;;22.50;85.70;;;;;;4936462;28;20486;-71
2022/06/06 13:32:46;;;;;;;8.37;1.20;;;22.50;85.60;;;;;;4952884;29;20495;-72
2022/06/06 13:35:21;;;;;;;4.17;1.77;;;22.50;86.10;;;;;;4934897;29;20463;-71
2022/06/06 13:38:22;;;;;;;4.80;1.53;;;22.60;85.30;;;;;;4919024;29;20965;-72
2022/06/06 13:41:36;;;;;;;3.43;1.40;;;22.60;85.30;;;;;;4911860;29;20455;-72
2022/06/06 13:44:22;;;;;;;4.23;1.30;;;22.70;84.10;;;;;;4916192;29;20462;-71
2022/06/06 13:46:56;;;;;;;3.23;1.27;;;22.70;83.00;;;;;;4891163;29;20443;-71
2022/06/06 13:49:41;;;;;;;3.23;1.27;;;22.80;82.40;;;;;;4952918;29;20472;-71
2022/06/06 13:52:29;;;;;;;1.90;1.27;;;22.80;81.60;;;;;;4936560;29;20900;-71
2022/06/06 13:54:55;;;;;;;4.80;1.50;;;22.80;80.50;;;;;;4952190;29;20474;-71
2022/06/06 13:57:33;;;;;;;4.70;1.50;;;22.90;79.80;;;;;;4953125;29;20817;-70
2022/06/06 14:00:16;;;;;;;6.73;1.57;;;22.90;80.20;;;;;;4953810;29;20462;-71
2022/06/06 14:02:51;;;;;;;2.60;1.17;;;23.00;80.90;;;;;;4954106;29;20419;-70
2022/06/06 14:05:42;;;;;;;2.33;1.10;;;23.00;81.20;;;;;;4937155;29;20422;-70
2022/06/06 14:08:20;;;;;;;4.93;1.47;;;23.00;81.20;;;;;;4953889;22;20525;31
2022/06/06 14:10:56;;;;;;;5.90;1.40;;;23.00;81.10;;;;;;4963702;28;20544;-70
2022/06/06 14:13:50;;;;;;;1.90;1.13;;;23.00;80.70;;;;;;4939757;29;20481;-70
2022/06/06 14:16:21;;;;;;;1.80;1.27;;;23.00;80.40;;;;;;4952084;29;20410;-70
2022/06/06 14:18:55;;;;;;;1.97;1.00;;;23.00;80.30;;;;;;4967384;28;20417;-71
2022/06/06 14:21:36;;;;;;;3.83;1.50;;;23.00;79.90;;;;;;4942014;29;20517;-71